createdAt,value
2022-10-30T00:02:22.569Z,95.17
2022-10-30T00:04:49.047Z,95.07
2022-10-30T00:07:15.471Z,94.81
2022-10-30T00:09:41.907Z,94.32
2022-10-30T00:12:08.315Z,95.41
2022-10-30T00:14:34.739Z,95.53
2022-10-30T00:17:01.169Z,95.44
2022-10-30T00:19:27.710Z,95.51
2022-10-30T00:24:21.085Z,95.59
2022-10-30T00:26:48.110Z,95.59
2022-10-30T00:29:14.591Z,96.03
2022-10-30T00:31:41.190Z,95.55
2022-10-30T00:34:07.680Z,95.43
2022-10-30T00:36:34.088Z,95.58
2022-10-30T00:39:00.542Z,95.20
2022-10-30T00:41:27.022Z,95.49
2022-10-30T00:43:53.679Z,95.17
2022-10-30T00:46:27.146Z,94.93
2022-10-30T00:49:00.700Z,94.91
2022-10-30T00:51:29.036Z,94.75
2022-10-30T00:53:58.427Z,95.75
2022-10-30T00:56:26.064Z,95.98
2022-10-30T00:59:02.291Z,96.19
2022-10-30T01:01:32.465Z,96.22
2022-10-30T01:04:01.604Z,95.84
2022-10-30T01:06:31.802Z,95.20
2022-10-30T01:09:00.102Z,95.04
2022-10-30T01:11:27.086Z,95.23
2022-10-30T01:13:55.921Z,95.37
2022-10-30T01:16:53.579Z,95.70
2022-10-30T01:19:50.243Z,95.61
2022-10-30T01:22:35.350Z,95.82
2022-10-30T01:25:29.593Z,96.14
2022-10-30T01:28:01.313Z,96.38
2022-10-30T01:30:45.154Z,96.83
2022-10-30T01:33:33.147Z,96.54
2022-10-30T01:36:03.600Z,95.64
2022-10-30T01:38:36.868Z,95.17
2022-10-30T01:41:03.353Z,95.79
2022-10-30T01:43:30.257Z,96.32
2022-10-30T01:46:02.814Z,96.29
2022-10-30T01:48:44.350Z,95.86
2022-10-30T01:51:17.012Z,95.57
2022-10-30T01:54:10.268Z,96.01
2022-10-30T01:56:43.977Z,95.56
2022-10-30T01:59:26.830Z,96.12
2022-10-30T02:01:53.569Z,95.80
2022-10-30T02:04:20.561Z,95.93
2022-10-30T02:06:47.214Z,96.01
2022-10-30T02:09:16.194Z,96.30
2022-10-30T02:11:45.121Z,96.63
2022-10-30T02:14:15.838Z,96.71
2022-10-30T02:16:46.259Z,96.52
2022-10-30T02:19:12.684Z,95.54
2022-10-30T02:21:39.423Z,95.99
2022-10-30T02:24:06.267Z,95.92
2022-10-30T02:26:32.786Z,96.21
2022-10-30T02:28:59.292Z,96.04
2022-10-30T02:31:25.774Z,96.71
2022-10-30T02:33:52.201Z,96.25
2022-10-30T02:36:19.665Z,96.28
2022-10-30T02:38:46.134Z,96.11
2022-10-30T02:41:12.958Z,96.05
2022-10-30T02:43:39.487Z,96.13
2022-10-30T02:46:05.960Z,96.32
2022-10-30T02:48:33.057Z,95.98
2022-10-30T02:51:05.790Z,96.33
2022-10-30T02:53:33.839Z,96.83
2022-10-30T02:56:08.431Z,96.62
2022-10-30T02:58:35.338Z,95.97
2022-10-30T03:01:13.141Z,95.63
2022-10-30T03:03:40.583Z,95.54
2022-10-30T03:06:09.784Z,95.91
2022-10-30T03:08:36.954Z,95.83
2022-10-30T03:11:09.362Z,95.85
2022-10-30T03:13:36.760Z,95.90
2022-10-30T03:16:16.671Z,95.85
2022-10-30T03:18:43.615Z,96.17
2022-10-30T03:21:16.044Z,95.49
2022-10-30T03:23:42.502Z,95.55
2022-10-30T03:26:09.315Z,95.93
2022-10-30T03:28:36.353Z,95.35
2022-10-30T03:31:05.771Z,95.37
2022-10-30T03:33:33.281Z,96.50
2022-10-30T03:36:00.364Z,96.00
2022-10-30T03:38:27.429Z,96.07
2022-10-30T03:40:54.225Z,96.79
2022-10-30T03:43:21.440Z,96.81
2022-10-30T03:45:49.776Z,96.91
2022-10-30T03:48:17.444Z,97.28
2022-10-30T03:50:44.244Z,97.37
2022-10-30T03:53:11.110Z,96.91
2022-10-30T03:55:37.658Z,97.01
2022-10-30T03:58:05.295Z,96.70
2022-10-30T04:00:32.957Z,96.62
2022-10-30T04:03:00.176Z,96.55
2022-10-30T04:05:28.516Z,97.23
2022-10-30T04:07:59.853Z,97.27
2022-10-30T04:10:26.852Z,96.50
2022-10-30T04:12:59.420Z,97.13
2022-10-30T04:15:26.111Z,96.90
2022-10-30T04:17:52.688Z,96.85
2022-10-30T04:20:20.094Z,96.41
2022-10-30T04:22:46.712Z,96.69
2022-10-30T04:25:13.770Z,97.12
2022-10-30T04:27:44.671Z,97.25
2022-10-30T04:30:13.035Z,97.60
2022-10-30T04:32:49.303Z,97.53
2022-10-30T04:35:17.196Z,97.66
2022-10-30T04:37:44.125Z,97.15
2022-10-30T04:40:10.914Z,96.96
2022-10-30T04:42:37.380Z,96.80
2022-10-30T04:45:05.092Z,97.62
2022-10-30T04:50:03.118Z,96.96
2022-10-30T04:52:29.567Z,96.93
2022-10-30T04:54:56.010Z,96.71
2022-10-30T04:57:22.435Z,97.25
2022-10-30T04:59:48.886Z,97.35
2022-10-30T05:02:15.720Z,97.50
2022-10-30T05:04:42.380Z,96.66
2022-10-30T05:07:08.887Z,96.79
2022-10-30T05:09:35.328Z,97.26
2022-10-30T05:12:01.771Z,96.82
2022-10-30T05:14:30.282Z,96.94
2022-10-30T05:16:56.805Z,96.75
2022-10-30T05:19:23.310Z,97.61
2022-10-30T05:21:49.800Z,97.51
2022-10-30T05:24:16.265Z,97.59
2022-10-30T05:26:43.118Z,97.05
2022-10-30T05:29:09.783Z,97.14
2022-10-30T05:31:36.236Z,97.19
2022-10-30T05:34:06.330Z,97.92
2022-10-30T05:36:34.213Z,97.75
2022-10-30T05:39:02.845Z,97.07
2022-10-30T05:41:29.899Z,96.57
2022-10-30T05:43:56.699Z,96.75
2022-10-30T05:46:23.122Z,96.39
2022-10-30T05:48:49.538Z,96.75
2022-10-30T05:51:15.986Z,97.39
2022-10-30T05:53:42.403Z,97.29
2022-10-30T05:56:08.945Z,96.79
2022-10-30T05:58:35.532Z,97.60
2022-10-30T06:01:06.248Z,97.41
2022-10-30T06:03:32.767Z,96.77
2022-10-30T06:05:59.205Z,96.76
2022-10-30T06:08:25.684Z,96.59
2022-10-30T06:10:54.755Z,97.08
2022-10-30T06:13:21.507Z,96.66
2022-10-30T06:15:47.930Z,97.24
2022-10-30T06:18:14.952Z,96.92
2022-10-30T06:20:41.416Z,96.79
2022-10-30T06:23:10.233Z,96.90
2022-10-30T06:25:40.995Z,97.66
2022-10-30T06:28:09.484Z,97.33
2022-10-30T06:30:35.945Z,97.36
2022-10-30T06:33:04.682Z,97.97
2022-10-30T06:35:31.517Z,98.24
2022-10-30T06:38:01.300Z,97.31
2022-10-30T06:40:29.890Z,98.25
2022-10-30T06:42:57.718Z,98.02
2022-10-30T06:45:25.139Z,97.67
2022-10-30T06:47:52.200Z,97.20
2022-10-30T06:50:20.658Z,97.31
2022-10-30T06:52:48.234Z,97.85
2022-10-30T06:55:14.770Z,97.46
2022-10-30T06:57:41.432Z,97.42
2022-10-30T07:00:08.779Z,97.61
2022-10-30T07:02:35.327Z,97.34
2022-10-30T07:05:01.853Z,98.13
2022-10-30T07:07:29.510Z,97.61
2022-10-30T07:09:56.103Z,97.56
2022-10-30T07:12:22.523Z,97.16
2022-10-30T07:14:49.027Z,98.30
2022-10-30T07:17:15.489Z,97.59
2022-10-30T07:19:41.915Z,97.91
2022-10-30T07:22:08.399Z,97.24
2022-10-30T07:24:34.852Z,97.96
2022-10-30T07:27:01.281Z,97.46
2022-10-30T07:29:27.755Z,97.49
2022-10-30T07:32:08.833Z,97.52
2022-10-30T07:34:35.272Z,97.21
2022-10-30T07:37:01.807Z,97.96
2022-10-30T07:39:28.272Z,97.33
2022-10-30T07:41:55.070Z,97.47
2022-10-30T07:44:21.633Z,97.93
2022-10-30T07:46:48.069Z,97.17
2022-10-30T07:49:14.506Z,97.78
2022-10-30T07:51:41.114Z,98.23
2022-10-30T07:54:07.555Z,97.25
2022-10-30T07:56:34.048Z,98.16
2022-10-30T07:59:00.562Z,97.96
2022-10-30T08:01:27.151Z,98.69
2022-10-30T08:03:53.759Z,98.49
2022-10-30T08:06:23.082Z,98.97
2022-10-30T08:08:52.808Z,99.23
2022-10-30T08:11:19.286Z,99.16
2022-10-30T08:13:45.762Z,98.86
2022-10-30T08:16:12.906Z,98.80
2022-10-30T08:18:42.106Z,98.53
2022-10-30T08:21:09.124Z,98.89
2022-10-30T08:23:35.827Z,98.06
2022-10-30T08:26:02.313Z,98.36
2022-10-30T08:28:31.825Z,98.10
2022-10-30T08:31:00.679Z,97.80
2022-10-30T08:33:27.109Z,97.86
2022-10-30T08:35:56.655Z,97.24
2022-10-30T08:38:23.976Z,96.96
2022-10-30T08:40:50.568Z,96.92
2022-10-30T08:43:17.104Z,96.44
2022-10-30T08:45:43.647Z,95.90
2022-10-30T08:48:12.115Z,95.55
2022-10-30T08:50:38.661Z,94.68
2022-10-30T08:53:08.152Z,94.53
2022-10-30T08:55:35.905Z,93.47
2022-10-30T08:58:03.411Z,93.26
2022-10-30T09:00:30.885Z,92.91
2022-10-30T09:02:57.887Z,92.62
2022-10-30T09:05:24.756Z,92.05
2022-10-30T09:07:56.983Z,91.47
2022-10-30T09:10:23.927Z,91.55
2022-10-30T09:12:58.567Z,90.82
2022-10-30T09:15:26.302Z,90.12
2022-10-30T09:18:03.239Z,89.46
2022-10-30T09:20:30.490Z,88.99
2022-10-30T09:22:57.475Z,89.06
2022-10-30T09:25:24.344Z,87.79
2022-10-30T09:27:50.889Z,88.23
2022-10-30T09:30:18.379Z,87.31
2022-10-30T09:32:44.836Z,86.75
2022-10-30T09:35:11.304Z,86.95
2022-10-30T09:37:38.770Z,85.92
2022-10-30T09:40:07.159Z,85.51
2022-10-30T09:42:44.707Z,85.47
2022-10-30T09:45:41.613Z,84.89
2022-10-30T09:48:17.173Z,83.77
2022-10-30T09:50:55.988Z,84.07
2022-10-30T09:53:41.785Z,84.28
2022-10-30T09:56:27.129Z,84.14
2022-10-30T09:59:07.203Z,84.72
2022-10-30T10:02:09.403Z,85.00
2022-10-30T10:04:46.784Z,84.46
2022-10-30T10:07:22.423Z,84.81
2022-10-30T10:09:54.144Z,83.92
2022-10-30T10:12:29.628Z,85.60
2022-10-30T10:14:58.090Z,84.62
2022-10-30T10:17:33.953Z,83.86
2022-10-30T10:20:02.645Z,82.10
2022-10-30T10:22:39.181Z,82.22
2022-10-30T10:25:13.508Z,79.99
2022-10-30T10:27:57.938Z,80.13
2022-10-30T10:30:26.239Z,80.03
2022-10-30T10:33:20.318Z,81.54
2022-10-30T10:35:53.945Z,78.79
2022-10-30T10:38:33.035Z,79.12
2022-10-30T10:41:05.580Z,78.37
2022-10-30T10:44:04.004Z,78.16
2022-10-30T10:46:48.721Z,77.47
2022-10-30T10:49:33.409Z,78.20
2022-10-30T10:52:07.999Z,77.56
2022-10-30T10:54:46.713Z,77.31
2022-10-30T10:57:22.758Z,77.54
2022-10-30T10:59:55.342Z,76.37
2022-10-30T11:02:31.525Z,76.00
2022-10-30T11:05:06.996Z,75.52
2022-10-30T11:07:39.584Z,75.57
2022-10-30T11:10:14.477Z,76.35
2022-10-30T11:12:41.950Z,75.39
2022-10-30T11:15:33.344Z,75.84
2022-10-30T11:18:08.899Z,75.05
2022-10-30T11:20:44.474Z,74.74
2022-10-30T11:23:31.007Z,74.52
2022-10-30T11:25:57.533Z,75.24
2022-10-30T11:28:34.351Z,73.68
2022-10-30T11:31:24.415Z,72.89
2022-10-30T11:33:51.626Z,72.79
2022-10-30T11:36:23.059Z,72.23
2022-10-30T11:38:50.101Z,72.68
2022-10-30T11:41:17.684Z,71.25
2022-10-30T11:43:44.917Z,71.88
2022-10-30T11:46:20.049Z,71.86
2022-10-30T11:48:47.046Z,72.50
2022-10-30T11:51:13.895Z,72.87
2022-10-30T11:53:49.864Z,73.17
2022-10-30T11:56:20.939Z,72.14
2022-10-30T11:58:53.763Z,72.73
2022-10-30T12:01:26.061Z,72.32
2022-10-30T12:03:54.951Z,72.52
2022-10-30T12:06:24.828Z,72.34
2022-10-30T12:09:04.224Z,73.06
2022-10-30T12:11:35.359Z,72.94
2022-10-30T12:14:02.529Z,73.52
2022-10-30T12:16:30.291Z,73.20
2022-10-30T12:19:06.783Z,74.23
2022-10-30T12:21:41.109Z,73.33
2022-10-30T12:24:19.973Z,73.61
2022-10-30T12:26:49.373Z,73.78
2022-10-30T12:29:19.728Z,74.48
2022-10-30T12:31:54.706Z,73.40
2022-10-30T12:34:28.966Z,73.25
2022-10-30T12:37:04.881Z,73.95
2022-10-30T12:39:46.136Z,73.69
2022-10-30T12:42:16.723Z,73.79
2022-10-30T12:44:48.428Z,74.11
2022-10-30T12:47:14.780Z,74.29
2022-10-30T12:52:47.224Z,75.42
2022-10-30T12:55:21.453Z,74.36
2022-10-30T12:57:56.969Z,74.17
2022-10-30T13:00:25.914Z,73.81
2022-10-30T13:03:16.709Z,74.93
2022-10-30T13:08:37.729Z,74.69
2022-10-30T13:11:12.912Z,75.34
2022-10-30T13:13:42.873Z,75.60
2022-10-30T13:16:19.523Z,74.46
2022-10-30T13:18:45.937Z,74.49
2022-10-30T13:21:31.279Z,73.77
2022-10-30T13:24:11.265Z,74.38
2022-10-30T13:27:03.756Z,75.01
2022-10-30T13:30:02.072Z,74.33
2022-10-30T13:33:06.064Z,74.89
2022-10-30T13:35:52.739Z,74.89
2022-10-30T13:38:37.880Z,75.19
2022-10-30T13:41:38.337Z,75.45
2022-10-30T13:44:26.284Z,76.45
2022-10-30T13:47:20.164Z,76.61
2022-10-30T13:50:09.774Z,76.50
2022-10-30T13:52:40.686Z,76.45
2022-10-30T13:55:34.237Z,76.51
2022-10-30T13:58:06.773Z,76.36
2022-10-30T14:00:59.475Z,76.82
2022-10-30T14:03:50.692Z,76.66
2022-10-30T14:06:44.948Z,77.04
2022-10-30T14:09:32.805Z,77.40
2022-10-30T14:12:56.946Z,77.30
2022-10-30T14:15:26.711Z,77.44
2022-10-30T14:18:11.458Z,78.20
2022-10-30T14:20:39.213Z,78.06
2022-10-30T14:23:14.537Z,78.02
2022-10-30T14:25:42.720Z,78.27
2022-10-30T14:28:21.759Z,78.75
2022-10-30T14:30:48.224Z,78.28
2022-10-30T14:33:39.575Z,77.53
2022-10-30T14:36:19.999Z,77.52
2022-10-30T14:38:53.890Z,77.04
2022-10-30T14:41:48.363Z,76.84
2022-10-30T14:44:18.198Z,78.20
2022-10-30T14:46:49.222Z,77.74
2022-10-30T14:49:43.515Z,77.74
2022-10-30T14:52:16.114Z,77.96
2022-10-30T14:54:55.538Z,78.38
2022-10-30T14:57:47.802Z,78.69
2022-10-30T15:00:24.368Z,77.81
2022-10-30T15:03:18.509Z,78.45
2022-10-30T15:05:50.236Z,79.28
2022-10-30T15:08:22.751Z,80.18
2022-10-30T15:11:17.805Z,80.53
2022-10-30T15:13:52.996Z,81.46
2022-10-30T15:16:21.772Z,82.38
2022-10-30T15:18:56.740Z,81.95
2022-10-30T15:21:28.924Z,82.33
2022-10-30T15:23:59.084Z,82.64
2022-10-30T15:26:33.118Z,83.04
2022-10-30T15:29:00.630Z,83.50
2022-10-30T15:31:28.644Z,83.58
2022-10-30T15:33:57.765Z,84.39
2022-10-30T15:36:34.167Z,84.69
2022-10-30T15:39:06.036Z,85.74
2022-10-30T15:41:37.674Z,85.72
2022-10-30T15:44:04.551Z,85.88
2022-10-30T15:46:31.548Z,86.12
2022-10-30T15:48:58.210Z,86.16
2022-10-30T15:51:24.773Z,86.11
2022-10-30T15:54:00.272Z,85.60
2022-10-30T15:57:21.565Z,85.91
2022-10-30T15:59:37.069Z,86.08
2022-10-30T16:02:19.364Z,86.26
2022-10-30T16:04:47.075Z,86.04
2022-10-30T16:07:20.313Z,86.06
2022-10-30T16:09:57.973Z,86.04
2022-10-30T16:12:26.361Z,86.30
2022-10-30T16:14:54.826Z,85.59
2022-10-30T16:17:22.154Z,85.53
2022-10-30T16:19:53.414Z,85.98
2022-10-30T16:22:33.899Z,85.50
2022-10-30T16:25:00.420Z,85.20
2022-10-30T16:27:27.507Z,84.47
2022-10-30T16:29:58.175Z,85.48
2022-10-30T16:32:27.405Z,85.04
2022-10-30T16:35:03.164Z,84.72
2022-10-30T16:37:35.857Z,85.20
2022-10-30T16:40:27.248Z,84.79
2022-10-30T16:42:59.002Z,85.27
2022-10-30T16:45:31.654Z,85.25
2022-10-30T16:48:08.424Z,85.52
2022-10-30T16:50:38.063Z,85.61
2022-10-30T16:53:06.518Z,86.16
2022-10-30T16:55:33.649Z,86.26
2022-10-30T16:58:00.595Z,86.54
2022-10-30T17:00:32.722Z,86.70
2022-10-30T17:03:08.104Z,86.75
2022-10-30T17:05:35.806Z,86.39
2022-10-30T17:08:24.589Z,86.41
2022-10-30T17:11:05.611Z,86.49
2022-10-30T17:13:34.914Z,86.36
2022-10-30T17:16:30.455Z,86.58
2022-10-30T17:19:18.120Z,86.93
2022-10-30T17:21:44.657Z,87.17
2022-10-30T17:24:25.427Z,87.21
2022-10-30T17:26:57.038Z,87.34
2022-10-30T17:29:41.781Z,87.76
2022-10-30T17:32:20.217Z,87.91
2022-10-30T17:34:47.436Z,88.14
2022-10-30T17:37:13.930Z,88.39
2022-10-30T17:39:40.355Z,88.65
2022-10-30T17:42:07.655Z,88.74
2022-10-30T17:44:35.858Z,89.14
2022-10-30T17:47:15.152Z,89.40
2022-10-30T17:49:41.644Z,89.05
2022-10-30T17:52:11.929Z,89.81
2022-10-30T17:54:38.820Z,90.15
2022-10-30T17:57:05.229Z,90.89
2022-10-30T17:59:31.735Z,90.67
2022-10-30T18:01:58.366Z,90.44
2022-10-30T18:04:24.928Z,90.74
2022-10-30T18:06:51.390Z,90.66
2022-10-30T18:09:17.899Z,90.78
2022-10-30T18:11:44.384Z,90.94
2022-10-30T18:14:11.694Z,91.22
2022-10-30T18:16:38.880Z,91.92
2022-10-30T18:19:10.368Z,91.95
2022-10-30T18:21:37.359Z,92.16
2022-10-30T18:24:10.453Z,91.73
2022-10-30T18:26:40.507Z,91.80
2022-10-30T18:29:08.649Z,91.91
2022-10-30T18:31:36.968Z,91.96
2022-10-30T18:34:04.116Z,92.10
2022-10-30T18:36:31.024Z,91.97
2022-10-30T18:38:58.338Z,91.99
2022-10-30T18:41:33.415Z,92.48
2022-10-30T18:44:00.259Z,93.24
2022-10-30T18:46:28.187Z,92.80
2022-10-30T18:48:54.668Z,92.57
2022-10-30T18:51:24.479Z,93.07
2022-10-30T18:53:51.928Z,93.87
2022-10-30T18:56:20.874Z,93.88
2022-10-30T18:58:47.653Z,93.72
2022-10-30T19:01:15.634Z,93.90
2022-10-30T19:03:43.202Z,92.97
2022-10-30T19:06:12.511Z,93.03
2022-10-30T19:08:39.420Z,92.75
2022-10-30T19:11:06.507Z,93.26
2022-10-30T19:13:33.033Z,93.61
2022-10-30T19:16:02.347Z,92.81
2022-10-30T19:18:31.060Z,93.27
2022-10-30T19:21:04.579Z,93.39
2022-10-30T19:23:32.579Z,92.70
2022-10-30T19:25:59.069Z,92.65
2022-10-30T19:28:25.953Z,92.83
2022-10-30T19:30:54.898Z,93.75
2022-10-30T19:33:23.308Z,93.00
2022-10-30T19:35:59.396Z,93.57
2022-10-30T19:38:25.920Z,92.52
2022-10-30T19:40:53.036Z,92.96
2022-10-30T19:43:19.686Z,93.68
2022-10-30T19:45:48.069Z,93.54
2022-10-30T19:48:24.875Z,92.98
2022-10-30T19:51:01.039Z,93.08
2022-10-30T19:53:27.517Z,94.01
2022-10-30T19:55:54.220Z,92.95
2022-10-30T19:58:23.624Z,93.78
2022-10-30T20:00:54.260Z,93.56
2022-10-30T20:03:21.226Z,94.24
2022-10-30T20:05:50.516Z,93.91
2022-10-30T20:08:24.550Z,94.89
2022-10-30T20:10:51.148Z,95.44
2022-10-30T20:13:18.439Z,95.28
2022-10-30T20:15:44.948Z,94.92
2022-10-30T20:18:20.011Z,95.10
2022-10-30T20:20:51.849Z,94.69
2022-10-30T20:23:20.254Z,94.55
2022-10-30T20:25:48.283Z,93.99
2022-10-30T20:28:28.319Z,94.39
2022-10-30T20:30:55.823Z,94.42
2022-10-30T20:33:23.091Z,93.88
2022-10-30T20:35:50.479Z,93.75
2022-10-30T20:38:29.350Z,94.51
2022-10-30T20:40:57.140Z,93.98
2022-10-30T20:43:35.800Z,94.67
2022-10-30T20:46:04.254Z,95.25
2022-10-30T20:48:30.761Z,95.23
2022-10-30T20:50:59.376Z,94.96
2022-10-30T20:53:26.324Z,95.31
2022-10-30T20:55:52.779Z,95.30
2022-10-30T20:58:19.378Z,95.63
2022-10-30T21:00:46.107Z,95.60
2022-10-30T21:03:15.706Z,95.72
2022-10-30T21:05:45.723Z,95.62
2022-10-30T21:08:14.038Z,95.54
2022-10-30T21:10:41.550Z,95.43
2022-10-30T21:13:09.444Z,95.53
2022-10-30T21:15:41.184Z,95.90
2022-10-30T21:18:08.733Z,95.36
2022-10-30T21:20:36.223Z,95.82
2022-10-30T21:23:02.707Z,95.72
2022-10-30T21:25:31.492Z,95.64
2022-10-30T21:27:58.336Z,96.06
2022-10-30T21:30:24.884Z,95.87
2022-10-30T21:32:51.410Z,95.96
2022-10-30T21:35:18.131Z,95.55
2022-10-30T21:37:44.620Z,96.01
2022-10-30T21:40:11.772Z,95.87
2022-10-30T21:42:38.212Z,96.20
2022-10-30T21:45:05.520Z,96.18
2022-10-30T21:47:31.974Z,96.49
2022-10-30T21:49:58.403Z,96.55
2022-10-30T21:52:24.885Z,96.10
2022-10-30T21:54:51.292Z,96.43
2022-10-30T21:57:17.727Z,96.48
2022-10-30T21:59:44.212Z,97.04
2022-10-30T22:02:15.249Z,96.92
2022-10-30T22:04:41.916Z,96.67
2022-10-30T22:07:08.410Z,96.31
2022-10-30T22:09:34.955Z,96.09
2022-10-30T22:12:01.427Z,95.64
2022-10-30T22:14:29.316Z,95.93
2022-10-30T22:16:55.924Z,96.27
2022-10-30T22:19:22.416Z,95.77
2022-10-30T22:21:48.857Z,96.34
2022-10-30T22:24:15.998Z,96.31
2022-10-30T22:26:42.484Z,96.37
2022-10-30T22:29:09.343Z,96.24
2022-10-30T22:31:35.771Z,96.40
2022-10-30T22:34:02.606Z,96.31
2022-10-30T22:36:31.238Z,96.87
2022-10-30T22:39:03.948Z,96.52
2022-10-30T22:41:34.730Z,96.16
2022-10-30T22:44:08.061Z,96.35
2022-10-30T22:46:35.512Z,96.18
2022-10-30T22:49:01.993Z,96.19
2022-10-30T22:51:32.434Z,96.38
2022-10-30T22:54:01.110Z,96.17
2022-10-30T22:56:30.013Z,96.57
2022-10-30T22:58:59.962Z,96.28
2022-10-30T23:01:29.333Z,96.91
2022-10-30T23:03:57.528Z,97.12
2022-10-30T23:06:24.336Z,96.94
2022-10-30T23:08:55.571Z,97.33
2022-10-30T23:11:23.097Z,97.09
2022-10-30T23:13:50.170Z,97.75
2022-10-30T23:16:22.264Z,98.06
2022-10-30T23:18:49.020Z,98.24
2022-10-30T23:21:21.155Z,98.00
2022-10-30T23:23:48.425Z,98.22
2022-10-30T23:26:17.953Z,97.91
2022-10-30T23:28:45.393Z,98.35
2022-10-30T23:31:33.537Z,97.77
2022-10-30T23:34:03.302Z,98.11
2022-10-30T23:36:29.750Z,97.79
2022-10-30T23:38:59.437Z,98.18
2022-10-30T23:41:28.041Z,97.51
2022-10-30T23:43:59.315Z,97.64
2022-10-30T23:46:26.653Z,97.27
2022-10-30T23:48:53.549Z,96.97
2022-10-30T23:51:20.190Z,96.51
2022-10-30T23:53:46.646Z,97.10
2022-10-30T23:56:13.690Z,97.45
2022-10-30T23:58:43.715Z,97.58
